<?xml version='1.0' encoding='UTF-8'?><gpx version="1.1" creator="JPX - https://github.com/jenetics/jpx" xmlns="http://www.topografix.com/GPX/1/1"><trk><trkseg><trkpt lat="-34.08957215509667" lon="-71.96106709144188"><ele>15.0</ele><time>2026-03-31T21:23:29Z</time></trkpt><trkpt lat="-34.08947028415814" lon="-71.96103906955646"><ele>15.0</ele><time>2026-03-31T21:23:31Z</time></trkpt><trkpt lat="-34.08952820920737" lon="-71.9610787997778"><ele>15.0</ele><time>2026-03-31T21:23:49Z</time></trkpt><trkpt lat="-34.089595002367936" lon="-71.96111886670208"><ele>15.0</ele><time>2026-03-31T21:23:58.999Z</time></trkpt><trkpt lat="-34.089654866345384" lon="-71.9610751523496"><ele>15.0</ele><time>2026-03-31T21:24:03.999Z</time></trkpt><trkpt lat="-34.08972149836504" lon="-71.96105783825423"><ele>15.0</ele><time>2026-03-31T21:24:10.999Z</time></trkpt><trkpt lat="-34.08978016095415" lon="-71.96101486975984"><ele>15.0</ele><time>2026-03-31T21:24:18.999Z</time></trkpt><trkpt lat="-34.08984852784354" lon="-71.96100396247067"><ele>15.0</ele><time>2026-03-31T21:24:26.999Z</time></trkpt><trkpt lat="-34.08990812492135" lon="-71.96097578474968"><ele>15.0</ele><time>2026-03-31T21:24:35.999Z</time></trkpt><trkpt lat="-34.08993623992053" lon="-71.96090480040256"><ele>15.0</ele><time>2026-03-31T21:24:40.999Z</time></trkpt><trkpt lat="-34.089977737417804" lon="-71.96084638592262"><ele>15.0</ele><time>2026-03-31T21:24:46.999Z</time></trkpt><trkpt lat="-34.08998901639011" lon="-71.9607696312721"><ele>15.0</ele><time>2026-03-31T21:24:51.999Z</time></trkpt><trkpt lat="-34.09001309046543" lon="-71.96069175786621"><ele>15.0</ele><time>2026-03-31T21:24:56.999Z</time></trkpt><trkpt lat="-34.09004810891229" lon="-71.96061927869047"><ele>16.0</ele><time>2026-03-31T21:25:04.999Z</time></trkpt><trkpt lat="-34.09006618322479" lon="-71.9605433388694"><ele>17.0</ele><time>2026-03-31T21:25:10.999Z</time></trkpt><trkpt lat="-34.090097970198784" lon="-71.96046318932449"><ele>18.0</ele><time>2026-03-31T21:25:16.999Z</time></trkpt><trkpt lat="-34.090122965563175" lon="-71.96039172672627"><ele>19.0</ele><time>2026-03-31T21:25:22.999Z</time></trkpt><trkpt lat="-34.09014208549265" lon="-71.9603190708013"><ele>20.0</ele><time>2026-03-31T21:25:28.999Z</time></trkpt><trkpt lat="-34.090170519198864" lon="-71.96023251574306"><ele>21.0</ele><time>2026-03-31T21:25:35.999Z</time></trkpt><trkpt lat="-34.0902195432138" lon="-71.96017994765576"><ele>22.0</ele><time>2026-03-31T21:25:41.999Z</time></trkpt><trkpt lat="-34.090272833045695" lon="-71.96011148234754"><ele>22.0</ele><time>2026-03-31T21:25:48.999Z</time></trkpt><trkpt lat="-34.090309593715396" lon="-71.96004821113114"><ele>22.0</ele><time>2026-03-31T21:25:56.999Z</time></trkpt><trkpt lat="-34.0903551400131" lon="-71.95999234722991"><ele>22.0</ele><time>2026-03-31T21:26:02.999Z</time></trkpt><trkpt lat="-34.09036824713312" lon="-71.9599057830007"><ele>22.0</ele><time>2026-03-31T21:26:10.999Z</time></trkpt><trkpt lat="-34.09038335168312" lon="-71.95983172220312"><ele>22.0</ele><time>2026-03-31T21:26:17.999Z</time></trkpt><trkpt lat="-34.09040763341108" lon="-71.95975227095587"><ele>22.0</ele><time>2026-03-31T21:26:24.999Z</time></trkpt><trkpt lat="-34.09042261103294" lon="-71.95966329019305"><ele>22.0</ele><time>2026-03-31T21:26:32.999Z</time></trkpt><trkpt lat="-34.090428562757026" lon="-71.95958218167928"><ele>22.166666666666664</ele><time>2026-03-31T21:26:40.999Z</time></trkpt><trkpt lat="-34.09044090656068" lon="-71.95949743361689"><ele>22.333333333333332</ele><time>2026-03-31T21:26:48.999Z</time></trkpt><trkpt lat="-34.09043458252578" lon="-71.95932650149146"><ele>22.5</ele><time>2026-03-31T21:27:12Z</time></trkpt><trkpt lat="-34.09042074086372" lon="-71.95924864823972"><ele>22.666666666666668</ele><time>2026-03-31T21:27:19Z</time></trkpt><trkpt lat="-34.09039016500543" lon="-71.95917050344777"><ele>22.833333333333336</ele><time>2026-03-31T21:27:27Z</time></trkpt><trkpt lat="-34.09041530231456" lon="-71.95909273876987"><ele>23.0</ele><time>2026-03-31T21:27:37Z</time></trkpt><trkpt lat="-34.090434673971146" lon="-71.95901598260971"><ele>23.857142857142858</ele><time>2026-03-31T21:27:42Z</time></trkpt><trkpt lat="-34.09041076303063" lon="-71.95894511618201"><ele>24.714285714285715</ele><time>2026-03-31T21:27:48Z</time></trkpt><trkpt lat="-34.09038699979204" lon="-71.95886754810286"><ele>25.571428571428573</ele><time>2026-03-31T21:27:56Z</time></trkpt><trkpt lat="-34.09035116974837" lon="-71.95880412980804"><ele>26.42857142857143</ele><time>2026-03-31T21:28:02Z</time></trkpt><trkpt lat="-34.090355854602244" lon="-71.95872829795296"><ele>27.285714285714285</ele><time>2026-03-31T21:28:08Z</time></trkpt><trkpt lat="-34.09032093745312" lon="-71.95865415572219"><ele>28.142857142857146</ele><time>2026-03-31T21:28:16Z</time></trkpt><trkpt lat="-34.090320444257884" lon="-71.95857783209718"><ele>29.000000000000004</ele><time>2026-03-31T21:28:25Z</time></trkpt><trkpt lat="-34.09030097286343" lon="-71.95850143459491"><ele>29.000000000000004</ele><time>2026-03-31T21:28:32Z</time></trkpt><trkpt lat="-34.09027068378179" lon="-71.95843410136546"><ele>29.0</ele><time>2026-03-31T21:28:47Z</time></trkpt><trkpt lat="-34.09026138889689" lon="-71.95835768680887"><ele>29.000000000000004</ele><time>2026-03-31T21:28:53Z</time></trkpt><trkpt lat="-34.090265832143245" lon="-71.95827191993938"><ele>29.000000000000004</ele><time>2026-03-31T21:28:59Z</time></trkpt><trkpt lat="-34.090278700573975" lon="-71.95818177310821"><ele>29.0</ele><time>2026-03-31T21:29:07Z</time></trkpt><trkpt lat="-34.09029190272364" lon="-71.95809190551108"><ele>29.000000000000004</ele><time>2026-03-31T21:29:14Z</time></trkpt><trkpt lat="-34.090297754676136" lon="-71.95800489763995"><ele>29.000000000000004</ele><time>2026-03-31T21:29:22Z</time></trkpt><trkpt lat="-34.090359422062654" lon="-71.95798951965158"><ele>30.571428571428577</ele><time>2026-03-31T21:29:30Z</time></trkpt><trkpt lat="-34.09042102313484" lon="-71.95801034093076"><ele>32.142857142857146</ele><time>2026-03-31T21:29:37Z</time></trkpt><trkpt lat="-34.09048809530082" lon="-71.95803080505074"><ele>33.714285714285715</ele><time>2026-03-31T21:29:45Z</time></trkpt><trkpt lat="-34.09054846957573" lon="-71.95806136657407"><ele>35.28571428571429</ele><time>2026-03-31T21:29:53Z</time></trkpt><trkpt lat="-34.0905986271833" lon="-71.9581128329021"><ele>36.85714285714286</ele><time>2026-03-31T21:30:02Z</time></trkpt><trkpt lat="-34.090650251833736" lon="-71.95816772582027"><ele>38.42857142857143</ele><time>2026-03-31T21:30:10Z</time></trkpt><trkpt lat="-34.09071637600619" lon="-71.95820023035371"><ele>40.0</ele><time>2026-03-31T21:30:19Z</time></trkpt><trkpt lat="-34.09078133091316" lon="-71.95821800343978"><ele>40.42857142857143</ele><time>2026-03-31T21:30:28Z</time></trkpt><trkpt lat="-34.09084282608836" lon="-71.95824542352833"><ele>40.85714285714286</ele><time>2026-03-31T21:30:35Z</time></trkpt><trkpt lat="-34.09089276323222" lon="-71.95830785661293"><ele>41.28571428571429</ele><time>2026-03-31T21:30:42Z</time></trkpt><trkpt lat="-34.09093901388886" lon="-71.95836299532259"><ele>41.714285714285715</ele><time>2026-03-31T21:30:50Z</time></trkpt><trkpt lat="-34.09089017330205" lon="-71.95841768852033"><ele>42.142857142857146</ele><time>2026-03-31T21:30:56Z</time></trkpt><trkpt lat="-34.09085970740585" lon="-71.95848434496698"><ele>42.57142857142858</ele><time>2026-03-31T21:31:02Z</time></trkpt><trkpt lat="-34.090808457107286" lon="-71.95853530525156"><ele>43.0</ele><time>2026-03-31T21:31:10Z</time></trkpt><trkpt lat="-34.09086133578063" lon="-71.95848802512721"><ele>43.00000000000001</ele><time>2026-03-31T21:34:34Z</time></trkpt><trkpt lat="-34.09091613153261" lon="-71.95844893183619"><ele>43.0</ele><time>2026-03-31T21:34:45Z</time></trkpt><trkpt lat="-34.09098139005381" lon="-71.95842682016456"><ele>43.0</ele><time>2026-03-31T21:35:29Z</time></trkpt><trkpt lat="-34.09105178637808" lon="-71.95842561707285"><ele>43.0</ele><time>2026-03-31T21:35:45Z</time></trkpt><trkpt lat="-34.09111609653522" lon="-71.95842350105859"><ele>43.0</ele><time>2026-03-31T21:35:54Z</time></trkpt><trkpt lat="-34.091180369830354" lon="-71.95843492607715"><ele>43.00000000000001</ele><time>2026-03-31T21:36:01Z</time></trkpt><trkpt lat="-34.09124936617981" lon="-71.95843906061742"><ele>43.0</ele><time>2026-03-31T21:36:10Z</time></trkpt><trkpt lat="-34.09131964541743" lon="-71.95841879564175"><ele>43.00000000000001</ele><time>2026-03-31T21:36:19Z</time></trkpt><trkpt lat="-34.09139435124418" lon="-71.95838993882815"><ele>43.0</ele><time>2026-03-31T21:36:27Z</time></trkpt><trkpt lat="-34.09145352133133" lon="-71.95835131291847"><ele>43.0</ele><time>2026-03-31T21:36:35Z</time></trkpt><trkpt lat="-34.091493625615534" lon="-71.95827810417448"><ele>43.0</ele><time>2026-03-31T21:36:42Z</time></trkpt><trkpt lat="-34.091543323543966" lon="-71.95822671602672"><ele>43.0</ele><time>2026-03-31T21:36:49Z</time></trkpt><trkpt lat="-34.09159181342056" lon="-71.95816350395646"><ele>43.00000000000001</ele><time>2026-03-31T21:36:57Z</time></trkpt><trkpt lat="-34.09164961825223" lon="-71.9581158490998"><ele>43.0</ele><time>2026-03-31T21:37:04Z</time></trkpt><trkpt lat="-34.09170780274193" lon="-71.95818369233638"><ele>46.42857142857143</ele><time>2026-03-31T21:37:33.999Z</time></trkpt><trkpt lat="-34.09175930954198" lon="-71.95824171936385"><ele>49.85714285714286</ele><time>2026-03-31T21:37:48.999Z</time></trkpt><trkpt lat="-34.09179265374061" lon="-71.95831190899305"><ele>53.28571428571429</ele><time>2026-03-31T21:37:56Z</time></trkpt><trkpt lat="-34.09182831823798" lon="-71.95838850862239"><ele>56.714285714285715</ele><time>2026-03-31T21:38:04Z</time></trkpt><trkpt lat="-34.09186235184132" lon="-71.95845537711308"><ele>60.14285714285714</ele><time>2026-03-31T21:38:10Z</time></trkpt><trkpt lat="-34.091889510520566" lon="-71.95852562719182"><ele>63.57142857142858</ele><time>2026-03-31T21:38:16Z</time></trkpt><trkpt lat="-34.091939722605304" lon="-71.95858849927565"><ele>67.0</ele><time>2026-03-31T21:38:23Z</time></trkpt><trkpt lat="-34.09199972857403" lon="-71.95854995335097"><ele>67.0</ele><time>2026-03-31T21:38:30Z</time></trkpt><trkpt lat="-34.09206029937556" lon="-71.95850662979555"><ele>67.0</ele><time>2026-03-31T21:38:38Z</time></trkpt><trkpt lat="-34.092127008914815" lon="-71.95851814122598"><ele>67.0</ele><time>2026-03-31T21:38:47Z</time></trkpt><trkpt lat="-34.09220222869878" lon="-71.9584822486936"><ele>67.0</ele><time>2026-03-31T21:39:21Z</time></trkpt><trkpt lat="-34.09223489223519" lon="-71.95841274080733"><ele>67.0</ele><time>2026-03-31T21:39:31Z</time></trkpt><trkpt lat="-34.09228901259879" lon="-71.95837059694382"><ele>67.0</ele><time>2026-03-31T21:39:44Z</time></trkpt><trkpt lat="-34.092357413432055" lon="-71.95829906842563"><ele>67.0</ele><time>2026-03-31T21:40:04Z</time></trkpt><trkpt lat="-34.09234542519697" lon="-71.9582211340142"><ele>68.71428571428572</ele><time>2026-03-31T21:40:19Z</time></trkpt><trkpt lat="-34.09230463238291" lon="-71.95816076470582"><ele>70.42857142857143</ele><time>2026-03-31T21:40:41Z</time></trkpt><trkpt lat="-34.09236972585764" lon="-71.95815390200173"><ele>72.14285714285714</ele><time>2026-03-31T21:40:56Z</time></trkpt><trkpt lat="-34.09243519240168" lon="-71.95817198904516"><ele>73.85714285714286</ele><time>2026-03-31T21:41:11.001Z</time></trkpt><trkpt lat="-34.092499865292226" lon="-71.95815460535059"><ele>75.57142857142857</ele><time>2026-03-31T21:41:18.001Z</time></trkpt><trkpt lat="-34.092572529048454" lon="-71.95815144968057"><ele>77.28571428571429</ele><time>2026-03-31T21:41:25.001Z</time></trkpt><trkpt lat="-34.09263435618311" lon="-71.95811650714818"><ele>79.0</ele><time>2026-03-31T21:41:43.001Z</time></trkpt><trkpt lat="-34.09269793677407" lon="-71.95810692437449"><ele>81.00000000000001</ele><time>2026-03-31T21:41:50Z</time></trkpt><trkpt lat="-34.092760146065956" lon="-71.95812463746469"><ele>83.0</ele><time>2026-03-31T21:41:54Z</time></trkpt><trkpt lat="-34.092779814614424" lon="-71.9580417820613"><ele>85.0</ele><time>2026-03-31T21:42:28Z</time></trkpt><trkpt lat="-34.092832734107915" lon="-71.95799660069092"><ele>87.0</ele><time>2026-03-31T21:43:10.001Z</time></trkpt><trkpt lat="-34.09290433488892" lon="-71.9580018308679"><ele>89.0</ele><time>2026-03-31T21:43:19.001Z</time></trkpt><trkpt lat="-34.0929763023253" lon="-71.95798330775912"><ele>91.00000000000001</ele><time>2026-03-31T21:43:36.001Z</time></trkpt><trkpt lat="-34.09289302870929" lon="-71.95800587814205"><ele>93.0</ele><time>2026-03-31T21:43:45.001Z</time></trkpt><trkpt lat="-34.09296464025774" lon="-71.95798502279537"><ele>93.0</ele><time>2026-03-31T21:43:50.001Z</time></trkpt><trkpt lat="-34.09298166985072" lon="-71.95806538564058"><ele>93.0</ele><time>2026-03-31T21:44:12.001Z</time></trkpt><trkpt lat="-34.0930400755807" lon="-71.95802868196344"><ele>93.0</ele><time>2026-03-31T21:44:22.001Z</time></trkpt><trkpt lat="-34.09311524905639" lon="-71.95812234463601"><ele>93.0</ele><time>2026-03-31T21:46:11Z</time></trkpt><trkpt lat="-34.09313360405776" lon="-71.95803940987713"><ele>93.0</ele><time>2026-03-31T21:47:20Z</time></trkpt><trkpt lat="-34.09319300828418" lon="-71.95800097545887"><ele>93.0</ele><time>2026-03-31T21:47:45Z</time></trkpt><trkpt lat="-34.09326244664533" lon="-71.95797561874447"><ele>93.0</ele><time>2026-03-31T21:47:52Z</time></trkpt><trkpt lat="-34.093171715795215" lon="-71.9580225309871"><ele>93.0</ele><time>2026-03-31T21:48:53Z</time></trkpt><trkpt lat="-34.09311857908513" lon="-71.95793934309313"><ele>93.0</ele><time>2026-03-31T21:51:08Z</time></trkpt><trkpt lat="-34.093121731815074" lon="-71.95786048467102"><ele>93.0</ele><time>2026-03-31T21:51:13Z</time></trkpt><trkpt lat="-34.09314821050928" lon="-71.95795158611492"><ele>93.0</ele><time>2026-03-31T21:51:32Z</time></trkpt><trkpt lat="-34.09310087442628" lon="-71.95801620650809"><ele>93.0</ele><time>2026-03-31T21:52:10Z</time></trkpt><trkpt lat="-34.093047942042126" lon="-71.95795675333727"><ele>93.0</ele><time>2026-03-31T21:52:41Z</time></trkpt><trkpt lat="-34.09296680399264" lon="-71.9579334551611"><ele>93.0</ele><time>2026-03-31T21:53:29Z</time></trkpt><trkpt lat="-34.092929294606186" lon="-71.9578185837065"><ele>93.0</ele><time>2026-03-31T21:53:45Z</time></trkpt><trkpt lat="-34.09287002015377" lon="-71.95777879464697"><ele>93.0</ele><time>2026-03-31T21:53:50Z</time></trkpt><trkpt lat="-34.09280680077678" lon="-71.95778416815044"><ele>93.0</ele><time>2026-03-31T21:53:56Z</time></trkpt><trkpt lat="-34.09275701889474" lon="-71.95772618850553"><ele>93.0</ele><time>2026-03-31T21:54:05Z</time></trkpt><trkpt lat="-34.09277082383221" lon="-71.95764603694481"><ele>93.00000000000001</ele><time>2026-03-31T21:54:13Z</time></trkpt><trkpt lat="-34.09278242517959" lon="-71.95757064120335"><ele>93.0</ele><time>2026-03-31T21:54:58Z</time></trkpt><trkpt lat="-34.09272433712004" lon="-71.95753917611194"><ele>93.0</ele><time>2026-03-31T21:55:05Z</time></trkpt><trkpt lat="-34.09271300116656" lon="-71.95743573714591"><ele>93.0</ele><time>2026-03-31T21:55:22Z</time></trkpt><trkpt lat="-34.09276989231667" lon="-71.95740011281492"><ele>93.0</ele><time>2026-03-31T21:55:52Z</time></trkpt><trkpt lat="-34.09283614348989" lon="-71.9573831811603"><ele>93.00000000000001</ele><time>2026-03-31T21:56:15.001Z</time></trkpt><trkpt lat="-34.092862756078695" lon="-71.95730979942708"><ele>93.0</ele><time>2026-03-31T21:57:44Z</time></trkpt><trkpt lat="-34.09280166174245" lon="-71.95725294190594"><ele>93.14285714285715</ele><time>2026-03-31T21:58:40Z</time></trkpt><trkpt lat="-34.0927681261439" lon="-71.9571884890229"><ele>93.28571428571429</ele><time>2026-03-31T21:58:53Z</time></trkpt><trkpt lat="-34.092793719595925" lon="-71.95708340642865"><ele>93.42857142857143</ele><time>2026-03-31T21:59:15Z</time></trkpt><trkpt lat="-34.09281491369849" lon="-71.95700594012568"><ele>93.57142857142858</ele><time>2026-03-31T21:59:29Z</time></trkpt><trkpt lat="-34.09277301288761" lon="-71.95694869296072"><ele>93.71428571428571</ele><time>2026-03-31T21:59:42Z</time></trkpt><trkpt lat="-34.09276889988798" lon="-71.95686533066974"><ele>93.85714285714286</ele><time>2026-03-31T21:59:49Z</time></trkpt><trkpt lat="-34.09279724277712" lon="-71.95679538156722"><ele>94.0</ele><time>2026-03-31T21:59:58Z</time></trkpt><trkpt lat="-34.09284448158112" lon="-71.95673020149265"><ele>93.71428571428571</ele><time>2026-03-31T22:00:05Z</time></trkpt><trkpt lat="-34.09279015438963" lon="-71.95662613669306"><ele>93.42857142857142</ele><time>2026-03-31T22:00:23Z</time></trkpt><trkpt lat="-34.09272823789648" lon="-71.95661113981124"><ele>93.14285714285714</ele><time>2026-03-31T22:00:41Z</time></trkpt><trkpt lat="-34.09269550728458" lon="-71.95654207706276"><ele>92.85714285714286</ele><time>2026-03-31T22:00:50Z</time></trkpt><trkpt lat="-34.092628509687174" lon="-71.95653585294099"><ele>92.57142857142857</ele><time>2026-03-31T22:01:03Z</time></trkpt><trkpt lat="-34.09256363352335" lon="-71.95651789421176"><ele>92.28571428571429</ele><time>2026-03-31T22:01:17Z</time></trkpt><trkpt lat="-34.09256787084461" lon="-71.95644193939576"><ele>92.0</ele><time>2026-03-31T22:01:42Z</time></trkpt><trkpt lat="-34.092549905782704" lon="-71.95636482183515"><ele>92.0</ele><time>2026-03-31T22:01:50Z</time></trkpt><trkpt lat="-34.09259226227639" lon="-71.95630784455693"><ele>92.0</ele><time>2026-03-31T22:02:13Z</time></trkpt><trkpt lat="-34.092573396390335" lon="-71.95622155844224"><ele>92.0</ele><time>2026-03-31T22:02:21Z</time></trkpt><trkpt lat="-34.092574606888554" lon="-71.95612903998587"><ele>92.0</ele><time>2026-03-31T22:02:30Z</time></trkpt><trkpt lat="-34.09250849990667" lon="-71.95614932734685"><ele>92.0</ele><time>2026-03-31T22:02:50Z</time></trkpt><trkpt lat="-34.09249619707756" lon="-71.9560071882848"><ele>92.0</ele><time>2026-03-31T22:04:11Z</time></trkpt><trkpt lat="-34.09247754577621" lon="-71.95593021915414"><ele>92.0</ele><time>2026-03-31T22:04:24Z</time></trkpt><trkpt lat="-34.092520330208416" lon="-71.95587022621362"><ele>92.0</ele><time>2026-03-31T22:04:43Z</time></trkpt><trkpt lat="-34.09246055452375" lon="-71.95581878488011"><ele>92.0</ele><time>2026-03-31T22:05:47Z</time></trkpt><trkpt lat="-34.0925076121844" lon="-71.95574151223056"><ele>92.0</ele><time>2026-03-31T22:05:50Z</time></trkpt><trkpt lat="-34.092544593568924" lon="-71.95566115901688"><ele>92.0</ele><time>2026-03-31T22:05:55Z</time></trkpt><trkpt lat="-34.092474504250866" lon="-71.95567412720365"><ele>92.0</ele><time>2026-03-31T22:07:14Z</time></trkpt><trkpt lat="-34.0925115841229" lon="-71.9557399750088"><ele>92.0</ele><time>2026-03-31T22:07:16Z</time></trkpt><trkpt lat="-34.09243607064964" lon="-71.95577482590024"><ele>93.0</ele><time>2026-03-31T22:07:26Z</time></trkpt><trkpt lat="-34.09243692831503" lon="-71.95569853141485"><ele>94.0</ele><time>2026-03-31T22:07:42Z</time></trkpt><trkpt lat="-34.09248283552348" lon="-71.95564157299987"><ele>95.0</ele><time>2026-03-31T22:08:10Z</time></trkpt><trkpt lat="-34.0924937727006" lon="-71.95555619710213"><ele>96.0</ele><time>2026-03-31T22:08:35Z</time></trkpt><trkpt lat="-34.092498329670654" lon="-71.95546905308058"><ele>97.0</ele><time>2026-03-31T22:08:42.001Z</time></trkpt><trkpt lat="-34.09247093081552" lon="-71.95539424130114"><ele>98.0</ele><time>2026-03-31T22:09:20Z</time></trkpt><trkpt lat="-34.092431225579425" lon="-71.95532404588214"><ele>99.0</ele><time>2026-03-31T22:09:35Z</time></trkpt><trkpt lat="-34.09236435910937" lon="-71.95531706543841"><ele>94.2</ele><time>2026-03-31T22:11:54Z</time></trkpt><trkpt lat="-34.09227795755769" lon="-71.9552946145456"><ele>89.4</ele><time>2026-03-31T22:12:20Z</time></trkpt><trkpt lat="-34.0921710642723" lon="-71.95527467254595"><ele>84.6</ele><time>2026-03-31T22:12:33Z</time></trkpt><trkpt lat="-34.09210033017507" lon="-71.95514448285793"><ele>79.8</ele><time>2026-03-31T22:13:03.999Z</time></trkpt><trkpt lat="-34.092047448945955" lon="-71.95522461390811"><ele>75.0</ele><time>2026-03-31T22:13:16Z</time></trkpt><trkpt lat="-34.09192429557112" lon="-71.95521078752942"><ele>75.0</ele><time>2026-03-31T22:14:01Z</time></trkpt><trkpt lat="-34.09190734568196" lon="-71.95511106688048"><ele>75.0</ele><time>2026-03-31T22:14:05Z</time></trkpt><trkpt lat="-34.091865285319116" lon="-71.95503323133055"><ele>75.0</ele><time>2026-03-31T22:14:11Z</time></trkpt><trkpt lat="-34.091886698697316" lon="-71.9549551412323"><ele>75.0</ele><time>2026-03-31T22:14:16Z</time></trkpt><trkpt lat="-34.09182588963247" lon="-71.95489219151975"><ele>75.0</ele><time>2026-03-31T22:14:39Z</time></trkpt><trkpt lat="-34.091865853979556" lon="-71.95483208781232"><ele>75.0</ele><time>2026-03-31T22:14:56Z</time></trkpt><trkpt lat="-34.091917549841185" lon="-71.95474264013085"><ele>76.0</ele><time>2026-03-31T22:15:00Z</time></trkpt><trkpt lat="-34.09197343345129" lon="-71.95469155082627"><ele>77.0</ele><time>2026-03-31T22:15:08Z</time></trkpt><trkpt lat="-34.092017835400476" lon="-71.95459061312324"><ele>78.0</ele><time>2026-03-31T22:15:22Z</time></trkpt><trkpt lat="-34.0920956156386" lon="-71.95455512303255"><ele>79.0</ele><time>2026-03-31T22:15:34Z</time></trkpt><trkpt lat="-34.09216975459242" lon="-71.95452017542114"><ele>80.0</ele><time>2026-03-31T22:15:48Z</time></trkpt><trkpt lat="-34.09223948353835" lon="-71.95448143968063"><ele>81.0</ele><time>2026-03-31T22:16:09Z</time></trkpt><trkpt lat="-34.09227945540539" lon="-71.95440850511596"><ele>81.0</ele><time>2026-03-31T22:16:18Z</time></trkpt><trkpt lat="-34.09229066255502" lon="-71.95433004757811"><ele>81.0</ele><time>2026-03-31T22:16:51Z</time></trkpt><trkpt lat="-34.092346133790436" lon="-71.95426759073193"><ele>81.0</ele><time>2026-03-31T22:16:59Z</time></trkpt><trkpt lat="-34.092401055169" lon="-71.95420868658762"><ele>81.0</ele><time>2026-03-31T22:17:05Z</time></trkpt><trkpt lat="-34.09246323578072" lon="-71.9541966021022"><ele>81.0</ele><time>2026-03-31T22:17:17Z</time></trkpt><trkpt lat="-34.09253804473777" lon="-71.95420284577585"><ele>81.0</ele><time>2026-03-31T22:17:27Z</time></trkpt><trkpt lat="-34.092580747435555" lon="-71.95426330394851"><ele>81.0</ele><time>2026-03-31T22:17:35Z</time></trkpt><trkpt lat="-34.09264391025373" lon="-71.9543081582419"><ele>84.57142857142857</ele><time>2026-03-31T22:17:43Z</time></trkpt><trkpt lat="-34.09270908212048" lon="-71.954311064021"><ele>88.14285714285714</ele><time>2026-03-31T22:17:51Z</time></trkpt><trkpt lat="-34.09278124779502" lon="-71.95432846820559"><ele>91.71428571428572</ele><time>2026-03-31T22:17:58Z</time></trkpt><trkpt lat="-34.09283021717892" lon="-71.9543884089859"><ele>95.28571428571428</ele><time>2026-03-31T22:18:06Z</time></trkpt><trkpt lat="-34.09286854515236" lon="-71.95445657180994"><ele>98.85714285714285</ele><time>2026-03-31T22:18:12Z</time></trkpt><trkpt lat="-34.0929345155661" lon="-71.9544737396139"><ele>102.42857142857143</ele><time>2026-03-31T22:18:19Z</time></trkpt><trkpt lat="-34.09300117834953" lon="-71.95449126650516"><ele>106.0</ele><time>2026-03-31T22:18:24Z</time></trkpt><trkpt lat="-34.09305824652317" lon="-71.95453495303246"><ele>106.0</ele><time>2026-03-31T22:18:33Z</time></trkpt><trkpt lat="-34.09311845688831" lon="-71.95457439009316"><ele>106.0</ele><time>2026-03-31T22:18:38Z</time></trkpt><trkpt lat="-34.09317434632928" lon="-71.95461839944267"><ele>106.0</ele><time>2026-03-31T22:18:46Z</time></trkpt><trkpt lat="-34.0932334770382" lon="-71.95464511886217"><ele>106.0</ele><time>2026-03-31T22:18:50Z</time></trkpt><trkpt lat="-34.09330271338686" lon="-71.95467650206558"><ele>106.0</ele><time>2026-03-31T22:18:57Z</time></trkpt><trkpt lat="-34.09336585659289" lon="-71.95472223976641"><ele>106.0</ele><time>2026-03-31T22:19:03Z</time></trkpt><trkpt lat="-34.09342575869186" lon="-71.95474890391883"><ele>106.0</ele><time>2026-03-31T22:19:10Z</time></trkpt><trkpt lat="-34.093502670728434" lon="-71.95475984063093"><ele>108.0</ele><time>2026-03-31T22:19:17.001Z</time></trkpt><trkpt lat="-34.09357589312366" lon="-71.95477469148855"><ele>110.0</ele><time>2026-03-31T22:19:24Z</time></trkpt><trkpt lat="-34.09363922608477" lon="-71.95480304863712"><ele>112.0</ele><time>2026-03-31T22:19:30Z</time></trkpt><trkpt lat="-34.0937026913442" lon="-71.9548100742491"><ele>114.0</ele><time>2026-03-31T22:19:37Z</time></trkpt><trkpt lat="-34.09376343793543" lon="-71.95475552003536"><ele>116.0</ele><time>2026-03-31T22:19:45Z</time></trkpt><trkpt lat="-34.093806543922426" lon="-71.95469968393014"><ele>118.0</ele><time>2026-03-31T22:19:51Z</time></trkpt><trkpt lat="-34.09386135848304" lon="-71.95463163861116"><ele>120.0</ele><time>2026-03-31T22:20:16Z</time></trkpt><trkpt lat="-34.09388677166536" lon="-71.95452976922878"><ele>120.0</ele><time>2026-03-31T22:21:06Z</time></trkpt><trkpt lat="-34.0939181303475" lon="-71.95446263434339"><ele>120.0</ele><time>2026-03-31T22:21:07Z</time></trkpt><trkpt lat="-34.09393678110787" lon="-71.95438997184681"><ele>120.0</ele><time>2026-03-31T22:21:11Z</time></trkpt><trkpt lat="-34.09393216100588" lon="-71.9542967153316"><ele>120.0</ele><time>2026-03-31T22:21:20.001Z</time></trkpt><trkpt lat="-34.093978390967536" lon="-71.9542390009159"><ele>120.0</ele><time>2026-03-31T22:21:27.001Z</time></trkpt><trkpt lat="-34.094009060261264" lon="-71.95415200215837"><ele>120.0</ele><time>2026-03-31T22:21:34Z</time></trkpt><trkpt lat="-34.09402822412469" lon="-71.95407459276294"><ele>120.0</ele><time>2026-03-31T22:21:42Z</time></trkpt><trkpt lat="-34.0940386873518" lon="-71.95399818242133"><ele>120.85714285714286</ele><time>2026-03-31T22:21:48Z</time></trkpt><trkpt lat="-34.094035678039184" lon="-71.95391723013576"><ele>121.71428571428571</ele><time>2026-03-31T22:21:54Z</time></trkpt><trkpt lat="-34.09404092145966" lon="-71.95382848538793"><ele>122.57142857142857</ele><time>2026-03-31T22:22:01Z</time></trkpt><trkpt lat="-34.09401577839083" lon="-71.95374879215984"><ele>123.42857142857143</ele><time>2026-03-31T22:22:06Z</time></trkpt><trkpt lat="-34.0940340026038" lon="-71.9536548925564"><ele>124.28571428571428</ele><time>2026-03-31T22:22:12Z</time></trkpt><trkpt lat="-34.094080657209325" lon="-71.95358938124124"><ele>125.14285714285714</ele><time>2026-03-31T22:22:20Z</time></trkpt><trkpt lat="-34.094089733405056" lon="-71.9534970730035"><ele>126.0</ele><time>2026-03-31T22:22:29Z</time></trkpt><trkpt lat="-34.09411700784105" lon="-71.95342726324624"><ele>128.0</ele><time>2026-03-31T22:22:34Z</time></trkpt><trkpt lat="-34.09410230676008" lon="-71.95333852436676"><ele>130.0</ele><time>2026-03-31T22:22:42Z</time></trkpt><trkpt lat="-34.09412772682811" lon="-71.95325631388869"><ele>132.0</ele><time>2026-03-31T22:22:47Z</time></trkpt><trkpt lat="-34.09413024218974" lon="-71.9531786386441"><ele>134.0</ele><time>2026-03-31T22:22:52Z</time></trkpt><trkpt lat="-34.09419592655172" lon="-71.95312156843411"><ele>136.0</ele><time>2026-03-31T22:22:57Z</time></trkpt><trkpt lat="-34.09420587897483" lon="-71.95303333269443"><ele>138.0</ele><time>2026-03-31T22:23:04Z</time></trkpt><trkpt lat="-34.09423782221224" lon="-71.95296728922376"><ele>140.0</ele><time>2026-03-31T22:23:10Z</time></trkpt><trkpt lat="-34.0942815167289" lon="-71.95290139511177"><ele>140.0</ele><time>2026-03-31T22:23:19Z</time></trkpt><trkpt lat="-34.09427978090323" lon="-71.9528229557652"><ele>140.0</ele><time>2026-03-31T22:23:25Z</time></trkpt><trkpt lat="-34.09427897395148" lon="-71.95274399542699"><ele>140.0</ele><time>2026-03-31T22:23:31Z</time></trkpt><trkpt lat="-34.09428740606437" lon="-71.95265449170414"><ele>140.0</ele><time>2026-03-31T22:23:38Z</time></trkpt><trkpt lat="-34.09428948225284" lon="-71.95257313762396"><ele>140.0</ele><time>2026-03-31T22:23:48Z</time></trkpt><trkpt lat="-34.09423525272026" lon="-71.95251496313121"><ele>140.0</ele><time>2026-03-31T22:23:52Z</time></trkpt><trkpt lat="-34.0942614505807" lon="-71.95244065049432"><ele>140.0</ele><time>2026-03-31T22:23:58Z</time></trkpt><trkpt lat="-34.09423417491763" lon="-71.95236371818528"><ele>140.14285714285714</ele><time>2026-03-31T22:24:04Z</time></trkpt><trkpt lat="-34.09421211120716" lon="-71.95228995861393"><ele>140.28571428571428</ele><time>2026-03-31T22:24:11Z</time></trkpt><trkpt lat="-34.09417890549216" lon="-71.95222061620328"><ele>140.42857142857144</ele><time>2026-03-31T22:24:16Z</time></trkpt><trkpt lat="-34.09413575030183" lon="-71.95215874229193"><ele>140.57142857142856</ele><time>2026-03-31T22:24:22Z</time></trkpt><trkpt lat="-34.09410822233165" lon="-71.95208267861514"><ele>140.71428571428572</ele><time>2026-03-31T22:24:28Z</time></trkpt><trkpt lat="-34.09405620811195" lon="-71.95203514763908"><ele>140.85714285714286</ele><time>2026-03-31T22:24:34Z</time></trkpt><trkpt lat="-34.093995508837395" lon="-71.95197517872413"><ele>141.0</ele><time>2026-03-31T22:24:45Z</time></trkpt><trkpt lat="-34.09395578379065" lon="-71.9519077158549"><ele>139.57142857142858</ele><time>2026-03-31T22:24:53Z</time></trkpt><trkpt lat="-34.093910791887104" lon="-71.95182882925106"><ele>138.14285714285714</ele><time>2026-03-31T22:25:01Z</time></trkpt><trkpt lat="-34.093862043453655" lon="-71.95176408385244"><ele>136.71428571428572</ele><time>2026-03-31T22:25:09Z</time></trkpt><trkpt lat="-34.09380023794369" lon="-71.95174608913814"><ele>135.28571428571428</ele><time>2026-03-31T22:25:15Z</time></trkpt><trkpt lat="-34.09374990586827" lon="-71.95169452667278"><ele>133.85714285714286</ele><time>2026-03-31T22:25:20Z</time></trkpt><trkpt lat="-34.09370033464342" lon="-71.95161579489591"><ele>132.42857142857144</ele><time>2026-03-31T22:25:28Z</time></trkpt><trkpt lat="-34.093642873658354" lon="-71.95156922634368"><ele>131.0</ele><time>2026-03-31T22:25:35Z</time></trkpt><trkpt lat="-34.0936037565387" lon="-71.95150786039594"><ele>130.71428571428572</ele><time>2026-03-31T22:25:39Z</time></trkpt><trkpt lat="-34.09354756103023" lon="-71.95145483370842"><ele>130.42857142857144</ele><time>2026-03-31T22:25:47Z</time></trkpt><trkpt lat="-34.093499344209164" lon="-71.95138953257756"><ele>130.14285714285714</ele><time>2026-03-31T22:25:54Z</time></trkpt><trkpt lat="-34.09343550364549" lon="-71.9513451127811"><ele>129.85714285714286</ele><time>2026-03-31T22:25:59Z</time></trkpt><trkpt lat="-34.0933777764763" lon="-71.95129677266772"><ele>129.57142857142856</ele><time>2026-03-31T22:26:05Z</time></trkpt><trkpt lat="-34.09330718644717" lon="-71.95126458228243"><ele>129.28571428571428</ele><time>2026-03-31T22:26:11Z</time></trkpt><trkpt lat="-34.093237349474954" lon="-71.95120572270422"><ele>129.0</ele><time>2026-03-31T22:26:19Z</time></trkpt><trkpt lat="-34.09317428920511" lon="-71.95120136023743"><ele>128.85714285714283</ele><time>2026-03-31T22:26:25Z</time></trkpt><trkpt lat="-34.09310490298962" lon="-71.9512031922377"><ele>128.71428571428572</ele><time>2026-03-31T22:26:33Z</time></trkpt><trkpt lat="-34.093065941896164" lon="-71.95113113571392"><ele>128.57142857142856</ele><time>2026-03-31T22:26:38Z</time></trkpt><trkpt lat="-34.09301271333297" lon="-71.95108016853789"><ele>128.42857142857142</ele><time>2026-03-31T22:26:44Z</time></trkpt><trkpt lat="-34.092972740286065" lon="-71.95100794105483"><ele>128.28571428571428</ele><time>2026-03-31T22:26:49Z</time></trkpt><trkpt lat="-34.09294113268433" lon="-71.95093757084828"><ele>128.14285714285714</ele><time>2026-03-31T22:26:56Z</time></trkpt><trkpt lat="-34.09289879211162" lon="-71.95087822282672"><ele>128.0</ele><time>2026-03-31T22:27:01Z</time></trkpt><trkpt lat="-34.09284568222775" lon="-71.95082414804521"><ele>128.0</ele><time>2026-03-31T22:27:06Z</time></trkpt><trkpt lat="-34.09279769888954" lon="-71.95075418462113"><ele>127.99999999999999</ele><time>2026-03-31T22:27:13Z</time></trkpt><trkpt lat="-34.09275498995" lon="-71.9506960229558"><ele>128.0</ele><time>2026-03-31T22:27:50Z</time></trkpt><trkpt lat="-34.0926979529632" lon="-71.95064765284151"><ele>128.0</ele><time>2026-03-31T22:28:05Z</time></trkpt><trkpt lat="-34.09270003687522" lon="-71.95072676118018"><ele>127.99999999999999</ele><time>2026-03-31T22:28:15Z</time></trkpt><trkpt lat="-34.0926084369666" lon="-71.95068820842869"><ele>128.0</ele><time>2026-03-31T22:28:49Z</time></trkpt><trkpt lat="-34.09258802315671" lon="-71.95059991963387"><ele>128.0</ele><time>2026-03-31T22:29:06Z</time></trkpt><trkpt lat="-34.09251713419922" lon="-71.95060550948075"><ele>127.99999999999999</ele><time>2026-03-31T22:29:15Z</time></trkpt><trkpt lat="-34.09244883509913" lon="-71.95063379614247"><ele>128.0</ele><time>2026-03-31T22:29:22Z</time></trkpt><trkpt lat="-34.092399540433846" lon="-71.9507228495996"><ele>128.0</ele><time>2026-03-31T22:29:50Z</time></trkpt><trkpt lat="-34.09232526033631" lon="-71.95069845416468"><ele>128.0</ele><time>2026-03-31T22:30:29Z</time></trkpt><trkpt lat="-34.09240019835279" lon="-71.95073436763684"><ele>127.99999999999999</ele><time>2026-03-31T22:32:32Z</time></trkpt><trkpt lat="-34.09232136702434" lon="-71.95074921121933"><ele>128.0</ele><time>2026-03-31T22:34:36Z</time></trkpt><trkpt lat="-34.0923867137619" lon="-71.95070703087363"><ele>107.0</ele><time>2026-03-31T22:34:40Z</time></trkpt><trkpt lat="-34.092433795673905" lon="-71.95077678103108"><ele>128.0</ele><time>2026-03-31T22:35:27Z</time></trkpt><trkpt lat="-34.09240446210419" lon="-71.95070895492239"><ele>107.0</ele><time>2026-03-31T22:35:31Z</time></trkpt></trkseg></trk></gpx>